OPLAOPMT

Guest
Details From OPLA - ALLAMA IQBAL INTL
To OPMT - MULTAN INTL
Flight Number -
Tags generated
Created
Modified
Stats Distance 179 nm / 332 km
Max Altitude 22,800 ft / 6,949 m
Waypoints 3
Social Downloads 1
Likes 0
Share VATSIM

Download

Looking for another format? Having issues loading an existing format? Contact us
Advertisement - Login to hide

Notes

Basic altitude profile: - Ascent Rate: 2500ft/min - Ascent Speed: 250kts - Cruise Altitude: 35000ft - Cruise Speed: 420kts - Descent Rate: 1500ft/min - Descent Speed: 250kts Options: - Use NATs: yes - Use PACOTS: yes - Use low airways: yes - Use high airways: yes

Route

OPLA HARPA OPMT

ID Type Via Altitude Latitude Longitude Leg Dist Tot Dist Heading (true) Name
O OPLA APT - 0 ft / 0 m 31.52156˚ 74.40359˚ - 0 nm - ALLAMA IQBAL INTL
HARPA FIX - 22,800 ft / 6,949 m 31.35000˚ 72.99944˚ 72 nm 72 nm 262° / 261° -
O OPMT APT - 0 ft / 0 m 30.20328˚ 71.41911˚ 106 nm 179 nm 230° / 229° MULTAN INTL

Altitude Profile

Advertisement - Login to hide

Weather


0- 5 10 15 20 25 30 35+ Temperature / ° C

Clouds and Precipitation
Forecast for 2017-12-14 12:00 UTC. Updated an hour ago

Ground ~20,000 ft ~40,000 ft Winds

OPLA

Details ICAO OPLA (LHE)
Name ALLAMA IQBAL INTL
Region Pakistan
Timezone Asia/Karachi (UTC+5.0)
Stats Elevation 712 ft / 217 m (AMSL)
Location 31.521562° 74.403591°
Runways 2
Magnetic Variation 2.011° E

METAR

OPLA 140755Z 31006KT 2500 FU SCT040 SCT100 13/08 Q1022 A30.14 BECMG 3000

Decode

TAF

Not found

Departure Runways

ID Width Length Bearing (true) Bearing (mag) Surface Threshold Offset Overrun Length
18L 151 ft / 46 m 11,014 ft / 3,357 m 180.88° 178.87° Concrete 0 ft / 0 m 410 ft / 125 m
18R 151 ft / 46 m 9,023 ft / 2,750 m 180.87° 178.86° Asphalt 0 ft / 0 m 915 ft / 279 m
36L 151 ft / 46 m 9,023 ft / 2,750 m 0.87° 358.86° Asphalt 0 ft / 0 m 0 ft / 0 m
36R 151 ft / 46 m 11,014 ft / 3,357 m 0.88° 358.87° Concrete 0 ft / 0 m 420 ft / 128 m

OPMT

Details ICAO OPMT (MUX)
Name MULTAN INTL
Region Pakistan
Timezone Asia/Karachi (UTC+5.0)
Stats Elevation 403 ft / 123 m (AMSL)
Location 30.203279° 71.419111°
Runways 1
Magnetic Variation 1.915° E

METAR

OPMT 140800Z 00000KT 2000 FU SCT040 OVC100 13/09 Q1022 NOSIG

Decode

TAF

Not found

Destination Runways

ID Width Length Bearing (true) Bearing (mag) Surface Threshold Offset Overrun Length
18 98 ft / 30 m 9,076 ft / 2,766 m 183.32° 181.41° Asphalt 0 ft / 0 m 899 ft / 274 m
36 98 ft / 30 m 9,076 ft / 2,766 m 3.32° 1.41° Asphalt 0 ft / 0 m 1,050 ft / 320 m

Popular Alternatives